Friday, July 31, 2015, 3:21 AM EDT

KSBY, Salisbury-wicomico Cty Reg

Location: Salisbury, MD, United States Lat: 38.333
Local Time: 3:21 AM EDT ( 7:21 GMT) Lon: -75.5
Time Zone: US/Eastern Elev: 52 ft

Show me the last for .
Show Decoded

2015-07-31 02:54 METAR KSBY 310654Z AUTO 00000KT 7SM CLR 24/24 A2988 RMK AO2 SLP119 T02390239 =
2015-07-31 01:54 METAR KSBY 310554Z AUTO 00000KT 5SM BR CLR 23/23 A2987 RMK AO2 SLP117 60006
                 T02330233 10250 20233 58006 =
2015-07-31 00:54 METAR KSBY 310454Z AUTO 16003KT 9SM BKN080 OVC095 24/24 A2989 RMK AO2 LTG DSNT
                 SE AND S SLP123 T02440239 403170228 =
2015-07-30 23:54 METAR KSBY 310354Z AUTO 00000KT 9SM BKN080 OVC100 24/24 A2990 RMK AO2 LTG DSNT S
                 SLP125 T02440239 =
2015-07-30 22:54 METAR KSBY 310254Z AUTO 00000KT 9SM FEW080 BKN095 24/24 A2989 RMK AO2 SLP124
                 60006 T02440239 50005 =
2015-07-30 21:54 METAR KSBY 310154Z 00000KT 10SM FEW065 SCT080 OVC110 24/24 A2989 =
2015-07-30 20:54 METAR KSBY 310054Z 26004KT 10SM OVC095 24/24 A2988 RMK AO2 RAE45 SLP121 P0006
                 T02440239 =
2015-07-30 19:54 METAR KSBY 302354Z 26006KT 5SM -RA BR FEW120 25/24 A2987 RMK AO2 LTG DSNT SW
                 RAB13 SLP118 P0005 60005 T02500239 10317 20250 53001 =
2015-07-30 18:54 METAR KSBY 302254Z 00000KT 10SM SCT047 28/25 A2985 RMK AO2 SLP111 T02780250 =
2015-07-30 17:54 METAR KSBY 302154Z 20006KT 10SM CLR 29/24 A2986 RMK AO2 LTG DSNT W SLP114
                 T02890244 =
2015-07-30 16:54 METAR KSBY 302054Z 19008KT 10SM SCT035 BKN046 BKN055 31/24 A2987 RMK AO2 SLP116
                 T03060239 55010 =
2015-07-30 15:54 METAR KSBY 301954Z 21008KT 10SM CLR 32/22 A2986 RMK AO2 SLP111 T03170222 =
2015-07-30 14:54 METAR KSBY 301854Z 19010KT 10SM CLR 32/22 A2988 RMK AO2 SLP121 T03170217 =
2015-07-30 13:54 METAR KSBY 301754Z 20013G20KT 10SM CLR 31/22 A2990 RMK AO2 SLP126 T03110217
                 10311 20250 58016 =
2015-07-30 12:54 METAR KSBY 301654Z 19012KT 10SM FEW030 31/22 A2993 RMK AO2 SLP136 T03060222 =
2015-07-30 11:54 METAR KSBY 301554Z 21009KT 10SM CLR 30/23 A2994 RMK AO2 SLP140 T03000233 =
2015-07-30 10:54 METAR KSBY 301454Z 21007KT 10SM SCT023 29/23 A2995 RMK AO2 SLP143 T02890233
                 57001 =
2015-07-30 09:54 METAR KSBY 301354Z 18009KT 10SM BKN043 28/23 A2995 RMK AO2 SLP143 T02780228 =
2015-07-30 08:54 METAR KSBY 301254Z 20010KT 10SM CLR 27/23 A2995 RMK AO2 SLP145 T02670233 =
2015-07-30 07:54 METAR KSBY 301154Z 18007KT 10SM CLR 25/23 A2995 RMK AO2 SLP145 T02500233 10250
                 20228 51002 =
2015-07-30 06:54 METAR KSBY 301054Z 17003KT 10SM CLR 23/22 A2995 RMK AO2 SLP145 T02330222 =
2015-07-30 05:54 METAR KSBY 300954Z 17003KT 10SM CLR 23/22 A2995 RMK AO2 SLP144 T02330222 =
2015-07-30 04:54 METAR KSBY 300854Z AUTO 18005KT 10SM CLR 23/23 A2995 RMK AO2 SLP143 T02330228
                 56009 =
2015-07-30 03:54 METAR KSBY 300754Z AUTO 19006KT 10SM CLR 24/22 A2995 RMK AO2 SLP144 T02390222 =

Support USWX by starting your Amazon purchase here.